sensor_id;sensor_type;location;lat;lon;timestamp;P1;durP1;ratioP1;P2;durP2;ratioP2
61627;SDS011;55193;52.102;5.242;2022-10-19T00:00:59;14.6;;;8.0;;
61627;SDS011;55193;52.102;5.242;2022-10-19T00:02:36;13.8;;;8.1;;
61627;SDS011;55193;52.102;5.242;2022-10-19T00:04:13;17.7;;;8.5;;
61627;SDS011;55193;52.102;5.242;2022-10-19T00:05:49;15.3;;;8.71;;
61627;SDS011;55193;52.102;5.242;2022-10-19T00:09:02;17.2;;;8.2;;
61627;SDS011;55193;52.102;5.242;2022-10-19T00:10:40;17.5;;;8.71;;
61627;SDS011;55193;52.102;5.242;2022-10-19T00:12:16;15.7;;;8.0;;
61627;SDS011;55193;52.102;5.242;2022-10-19T00:15:32;12.7;;;8.1;;
61627;SDS011;55193;52.102;5.242;2022-10-19T00:17:08;15.6;;;8.4;;
61627;SDS011;55193;52.102;5.242;2022-10-19T00:18:44;14.7;;;8.31;;
61627;SDS011;55193;52.102;5.242;2022-10-19T00:20:21;14.4;;;8.2;;
61627;SDS011;55193;52.102;5.242;2022-10-19T00:23:33;16.11;;;8.4;;
61627;SDS011;55193;52.102;5.242;2022-10-19T00:25:09;16.4;;;7.6;;
61627;SDS011;55193;52.102;5.242;2022-10-19T00:26:46;15.5;;;8.0;;
61627;SDS011;55193;52.102;5.242;2022-10-19T00:29:58;15.6;;;8.1;;
61627;SDS011;55193;52.102;5.242;2022-10-19T00:31:34;15.0;;;8.2;;
61627;SDS011;55193;52.102;5.242;2022-10-19T00:33:10;12.3;;;7.8;;
61627;SDS011;55193;52.102;5.242;2022-10-19T00:36:23;17.5;;;8.71;;
61627;SDS011;55193;52.102;5.242;2022-10-19T00:38:01;13.5;;;8.1;;
61627;SDS011;55193;52.102;5.242;2022-10-19T00:39:38;14.8;;;8.1;;
61627;SDS011;55193;52.102;5.242;2022-10-19T00:41:15;17.11;;;8.31;;
61627;SDS011;55193;52.102;5.242;2022-10-19T00:45:04;14.5;;;8.0;;
61627;SDS011;55193;52.102;5.242;2022-10-19T00:46:48;18.5;;;8.5;;
61627;SDS011;55193;52.102;5.242;2022-10-19T00:48:25;15.9;;;8.71;;
61627;SDS011;55193;52.102;5.242;2022-10-19T00:50:07;14.2;;;8.0;;
61627;SDS011;55193;52.102;5.242;2022-10-19T00:51:47;14.6;;;7.9;;
61627;SDS011;55193;52.102;5.242;2022-10-19T00:55:05;14.6;;;8.0;;
61627;SDS011;55193;52.102;5.242;2022-10-19T00:56:43;16.11;;;8.4;;
61627;SDS011;55193;52.102;5.242;2022-10-19T00:58:22;15.9;;;7.9;;
61627;SDS011;55193;52.102;5.242;2022-10-19T01:01:41;14.0;;;7.5;;
61627;SDS011;55193;52.102;5.242;2022-10-19T01:03:19;13.5;;;7.8;;
61627;SDS011;55193;52.102;5.242;2022-10-19T01:04:55;13.4;;;7.7;;
61627;SDS011;55193;52.102;5.242;2022-10-19T01:06:34;13.2;;;7.5;;
61627;SDS011;55193;52.102;5.242;2022-10-19T01:09:47;21.6;;;7.7;;
61627;SDS011;55193;52.102;5.242;2022-10-19T01:11:27;15.1;;;7.0;;
61627;SDS011;55193;52.102;5.242;2022-10-19T01:13:22;13.6;;;7.2;;
61627;SDS011;55193;52.102;5.242;2022-10-19T01:15:12;15.1;;;7.8;;
61627;SDS011;55193;52.102;5.242;2022-10-19T01:16:58;14.8;;;6.9;;
61627;SDS011;55193;52.102;5.242;2022-10-19T01:20:40;13.4;;;7.2;;
61627;SDS011;55193;52.102;5.242;2022-10-19T01:22:46;16.5;;;7.6;;
61627;SDS011;55193;52.102;5.242;2022-10-19T01:24:41;16.0;;;8.0;;
61627;SDS011;55193;52.102;5.242;2022-10-19T01:26:37;14.1;;;7.2;;
61627;SDS011;55193;52.102;5.242;2022-10-19T01:29:16;14.2;;;7.6;;
61627;SDS011;55193;52.102;5.242;2022-10-19T01:31:03;12.9;;;7.0;;
61627;SDS011;55193;52.102;5.242;2022-10-19T01:32:52;18.0;;;7.4;;
61627;SDS011;55193;52.102;5.242;2022-10-19T01:34:39;12.0;;;7.1;;
61627;SDS011;55193;52.102;5.242;2022-10-19T01:36:24;15.1;;;7.3;;
61627;SDS011;55193;52.102;5.242;2022-10-19T01:38:15;13.8;;;7.4;;
61627;SDS011;55193;52.102;5.242;2022-10-19T01:40:03;18.3;;;7.6;;
61627;SDS011;55193;52.102;5.242;2022-10-19T01:43:36;16.3;;;7.8;;
61627;SDS011;55193;52.102;5.242;2022-10-19T01:45:18;14.1;;;7.4;;
61627;SDS011;55193;52.102;5.242;2022-10-19T01:47:02;13.0;;;7.1;;
61627;SDS011;55193;52.102;5.242;2022-10-19T01:48:46;16.8;;;7.5;;
61627;SDS011;55193;52.102;5.242;2022-10-19T01:50:30;15.8;;;8.1;;
61627;SDS011;55193;52.102;5.242;2022-10-19T01:53:54;14.7;;;7.8;;
61627;SDS011;55193;52.102;5.242;2022-10-19T01:55:35;14.9;;;8.0;;
61627;SDS011;55193;52.102;5.242;2022-10-19T01:57:18;14.7;;;7.9;;
61627;SDS011;55193;52.102;5.242;2022-10-19T01:59:00;13.3;;;7.3;;
61627;SDS011;55193;52.102;5.242;2022-10-19T02:02:21;14.1;;;7.5;;
61627;SDS011;55193;52.102;5.242;2022-10-19T02:04:00;13.7;;;7.5;;
61627;SDS011;55193;52.102;5.242;2022-10-19T02:05:38;13.1;;;7.4;;
61627;SDS011;55193;52.102;5.242;2022-10-19T02:07:16;13.7;;;7.5;;
61627;SDS011;55193;52.102;5.242;2022-10-19T02:10:34;15.2;;;8.0;;
61627;SDS011;55193;52.102;5.242;2022-10-19T02:12:13;13.4;;;7.6;;
61627;SDS011;55193;52.102;5.242;2022-10-19T02:13:53;16.0;;;7.6;;
61627;SDS011;55193;52.102;5.242;2022-10-19T02:15:34;13.3;;;7.7;;
61627;SDS011;55193;52.102;5.242;2022-10-19T02:18:56;13.8;;;7.8;;
61627;SDS011;55193;52.102;5.242;2022-10-19T02:20:35;13.2;;;7.9;;
61627;SDS011;55193;52.102;5.242;2022-10-19T02:22:12;13.1;;;7.9;;
61627;SDS011;55193;52.102;5.242;2022-10-19T02:23:48;14.2;;;7.4;;
61627;SDS011;55193;52.102;5.242;2022-10-19T02:27:04;14.3;;;8.0;;
61627;SDS011;55193;52.102;5.242;2022-10-19T02:28:42;15.0;;;7.6;;
61627;SDS011;55193;52.102;5.242;2022-10-19T02:30:20;11.4;;;7.2;;
61627;SDS011;55193;52.102;5.242;2022-10-19T02:33:32;15.2;;;7.4;;
61627;SDS011;55193;52.102;5.242;2022-10-19T02:35:09;12.9;;;7.4;;
61627;SDS011;55193;52.102;5.242;2022-10-19T02:36:47;15.4;;;7.4;;
61627;SDS011;55193;52.102;5.242;2022-10-19T02:38:24;13.8;;;7.2;;
61627;SDS011;55193;52.102;5.242;2022-10-19T02:41:39;11.1;;;7.2;;
61627;SDS011;55193;52.102;5.242;2022-10-19T02:43:22;12.1;;;6.8;;
61627;SDS011;55193;52.102;5.242;2022-10-19T02:45:01;13.8;;;6.9;;
61627;SDS011;55193;52.102;5.242;2022-10-19T02:46:45;15.5;;;7.5;;
61627;SDS011;55193;52.102;5.242;2022-10-19T02:50:07;13.7;;;6.9;;
61627;SDS011;55193;52.102;5.242;2022-10-19T02:51:55;12.8;;;7.0;;
61627;SDS011;55193;52.102;5.242;2022-10-19T02:53:34;12.3;;;6.6;;
61627;SDS011;55193;52.102;5.242;2022-10-19T02:55:10;14.2;;;7.1;;
61627;SDS011;55193;52.102;5.242;2022-10-19T02:58:22;11.5;;;6.7;;
61627;SDS011;55193;52.102;5.242;2022-10-19T02:59:58;12.9;;;6.9;;
61627;SDS011;55193;52.102;5.242;2022-10-19T03:01:35;11.1;;;6.6;;
61627;SDS011;55193;52.102;5.242;2022-10-19T03:04:47;12.1;;;6.2;;
61627;SDS011;55193;52.102;5.242;2022-10-19T03:06:23;12.8;;;6.4;;
61627;SDS011;55193;52.102;5.242;2022-10-19T03:07:59;11.5;;;6.5;;
61627;SDS011;55193;52.102;5.242;2022-10-19T03:11:11;13.9;;;6.7;;
61627;SDS011;55193;52.102;5.242;2022-10-19T03:12:47;10.1;;;6.4;;
61627;SDS011;55193;52.102;5.242;2022-10-19T03:14:24;11.2;;;6.3;;
61627;SDS011;55193;52.102;5.242;2022-10-19T03:17:42;10.4;;;6.7;;
61627;SDS011;55193;52.102;5.242;2022-10-19T03:19:18;15.8;;;6.6;;
61627;SDS011;55193;52.102;5.242;2022-10-19T03:21:02;13.0;;;6.5;;
61627;SDS011;55193;52.102;5.242;2022-10-19T03:22:40;11.2;;;6.4;;
61627;SDS011;55193;52.102;5.242;2022-10-19T03:25:53;11.8;;;6.0;;
61627;SDS011;55193;52.102;5.242;2022-10-19T03:27:29;11.3;;;6.2;;
61627;SDS011;55193;52.102;5.242;2022-10-19T03:29:05;11.2;;;5.8;;
61627;SDS011;55193;52.102;5.242;2022-10-19T03:30:41;11.0;;;6.1;;
61627;SDS011;55193;52.102;5.242;2022-10-19T03:33:53;11.5;;;6.0;;
61627;SDS011;55193;52.102;5.242;2022-10-19T03:35:29;10.4;;;6.1;;
61627;SDS011;55193;52.102;5.242;2022-10-19T03:37:07;11.5;;;6.4;;
61627;SDS011;55193;52.102;5.242;2022-10-19T03:40:20;11.9;;;5.9;;
61627;SDS011;55193;52.102;5.242;2022-10-19T03:41:56;11.4;;;6.1;;
61627;SDS011;55193;52.102;5.242;2022-10-19T03:43:32;11.7;;;6.2;;
61627;SDS011;55193;52.102;5.242;2022-10-19T03:46:45;10.3;;;6.6;;
61627;SDS011;55193;52.102;5.242;2022-10-19T03:48:21;11.8;;;6.0;;
61627;SDS011;55193;52.102;5.242;2022-10-19T03:49:58;11.5;;;6.2;;
61627;SDS011;55193;52.102;5.242;2022-10-19T03:53:11;13.6;;;6.4;;
61627;SDS011;55193;52.102;5.242;2022-10-19T03:54:48;12.1;;;6.5;;
61627;SDS011;55193;52.102;5.242;2022-10-19T03:56:25;12.1;;;6.1;;
61627;SDS011;55193;52.102;5.242;2022-10-19T03:58:04;11.4;;;6.4;;
61627;SDS011;55193;52.102;5.242;2022-10-19T04:01:17;10.4;;;5.9;;
61627;SDS011;55193;52.102;5.242;2022-10-19T04:02:55;13.6;;;5.9;;
61627;SDS011;55193;52.102;5.242;2022-10-19T04:04:32;12.8;;;5.9;;
61627;SDS011;55193;52.102;5.242;2022-10-19T04:07:48;15.0;;;6.3;;
61627;SDS011;55193;52.102;5.242;2022-10-19T04:09:24;12.1;;;6.5;;
61627;SDS011;55193;52.102;5.242;2022-10-19T04:11:01;9.21;;;5.5;;
61627;SDS011;55193;52.102;5.242;2022-10-19T04:12:40;10.6;;;5.8;;
61627;SDS011;55193;52.102;5.242;2022-10-19T04:15:55;10.6;;;5.8;;
61627;SDS011;55193;52.102;5.242;2022-10-19T04:17:32;11.7;;;5.4;;
61627;SDS011;55193;52.102;5.242;2022-10-19T04:19:08;9.5;;;6.0;;
61627;SDS011;55193;52.102;5.242;2022-10-19T04:22:30;9.21;;;5.9;;
61627;SDS011;55193;52.102;5.242;2022-10-19T04:24:07;10.8;;;5.5;;
61627;SDS011;55193;52.102;5.242;2022-10-19T04:25:45;8.6;;;5.6;;
61627;SDS011;55193;52.102;5.242;2022-10-19T04:27:22;11.8;;;5.5;;
61627;SDS011;55193;52.102;5.242;2022-10-19T04:30:35;14.9;;;5.8;;
61627;SDS011;55193;52.102;5.242;2022-10-19T04:32:11;13.2;;;5.8;;
61627;SDS011;55193;52.102;5.242;2022-10-19T04:33:47;10.7;;;5.5;;
61627;SDS011;55193;52.102;5.242;2022-10-19T04:37:00;13.4;;;5.9;;
61627;SDS011;55193;52.102;5.242;2022-10-19T04:38:36;10.3;;;5.5;;
61627;SDS011;55193;52.102;5.242;2022-10-19T04:40:13;9.21;;;5.5;;
61627;SDS011;55193;52.102;5.242;2022-10-19T04:41:49;12.4;;;5.8;;
61627;SDS011;55193;52.102;5.242;2022-10-19T04:45:02;12.1;;;5.6;;
61627;SDS011;55193;52.102;5.242;2022-10-19T04:46:38;12.2;;;5.6;;
61627;SDS011;55193;52.102;5.242;2022-10-19T04:48:15;10.5;;;5.4;;
61627;SDS011;55193;52.102;5.242;2022-10-19T04:51:29;11.5;;;5.3;;
61627;SDS011;55193;52.102;5.242;2022-10-19T04:53:05;13.3;;;5.7;;
61627;SDS011;55193;52.102;5.242;2022-10-19T04:54:41;8.6;;;5.5;;
61627;SDS011;55193;52.102;5.242;2022-10-19T04:57:56;11.1;;;5.5;;
61627;SDS011;55193;52.102;5.242;2022-10-19T04:59:32;12.8;;;5.11;;
61627;SDS011;55193;52.102;5.242;2022-10-19T05:01:08;10.3;;;5.8;;
61627;SDS011;55193;52.102;5.242;2022-10-19T05:02:46;14.3;;;5.5;;
61627;SDS011;55193;52.102;5.242;2022-10-19T05:05:59;9.6;;;5.5;;
61627;SDS011;55193;52.102;5.242;2022-10-19T05:07:35;11.1;;;5.4;;
61627;SDS011;55193;52.102;5.242;2022-10-19T05:09:11;13.1;;;5.9;;
61627;SDS011;55193;52.102;5.242;2022-10-19T05:12:23;12.9;;;5.6;;
61627;SDS011;55193;52.102;5.242;2022-10-19T05:13:59;10.6;;;5.7;;
61627;SDS011;55193;52.102;5.242;2022-10-19T05:15:35;14.0;;;6.2;;
61627;SDS011;55193;52.102;5.242;2022-10-19T05:18:48;14.0;;;6.8;;
61627;SDS011;55193;52.102;5.242;2022-10-19T05:20:26;14.6;;;6.6;;
61627;SDS011;55193;52.102;5.242;2022-10-19T05:22:02;11.0;;;6.3;;
61627;SDS011;55193;52.102;5.242;2022-10-19T05:25:15;10.21;;;6.0;;
61627;SDS011;55193;52.102;5.242;2022-10-19T05:26:52;9.21;;;6.2;;
61627;SDS011;55193;52.102;5.242;2022-10-19T05:28:29;12.1;;;5.5;;
61627;SDS011;55193;52.102;5.242;2022-10-19T05:30:07;9.0;;;5.3;;
61627;SDS011;55193;52.102;5.242;2022-10-19T05:33:20;11.0;;;5.3;;
61627;SDS011;55193;52.102;5.242;2022-10-19T05:34:56;10.3;;;4.91;;
61627;SDS011;55193;52.102;5.242;2022-10-19T05:36:34;11.9;;;4.91;;
61627;SDS011;55193;52.102;5.242;2022-10-19T05:39:48;11.9;;;5.4;;
61627;SDS011;55193;52.102;5.242;2022-10-19T05:41:25;10.9;;;4.91;;
61627;SDS011;55193;52.102;5.242;2022-10-19T05:43:01;10.21;;;5.0;;
61627;SDS011;55193;52.102;5.242;2022-10-19T05:44:37;9.9;;;5.2;;
61627;SDS011;55193;52.102;5.242;2022-10-19T05:47:51;9.81;;;5.0;;
61627;SDS011;55193;52.102;5.242;2022-10-19T05:49:27;10.3;;;5.3;;
61627;SDS011;55193;52.102;5.242;2022-10-19T05:51:05;9.5;;;5.0;;
61627;SDS011;55193;52.102;5.242;2022-10-19T05:54:19;9.6;;;5.0;;
61627;SDS011;55193;52.102;5.242;2022-10-19T05:55:56;9.6;;;5.3;;
61627;SDS011;55193;52.102;5.242;2022-10-19T05:57:32;8.5;;;4.91;;
61627;SDS011;55193;52.102;5.242;2022-10-19T06:00:50;10.1;;;5.0;;
61627;SDS011;55193;52.102;5.242;2022-10-19T06:02:27;10.1;;;5.0;;
61627;SDS011;55193;52.102;5.242;2022-10-19T06:04:04;8.4;;;4.8;;
61627;SDS011;55193;52.102;5.242;2022-10-19T06:05:40;13.3;;;5.3;;
61627;SDS011;55193;52.102;5.242;2022-10-19T06:08:53;10.3;;;5.9;;
61627;SDS011;55193;52.102;5.242;2022-10-19T06:10:31;11.1;;;5.4;;
61627;SDS011;55193;52.102;5.242;2022-10-19T06:12:08;10.0;;;4.7;;
61627;SDS011;55193;52.102;5.242;2022-10-19T06:15:22;11.8;;;4.91;;
61627;SDS011;55193;52.102;5.242;2022-10-19T06:16:58;12.7;;;5.0;;
61627;SDS011;55193;52.102;5.242;2022-10-19T06:18:35;8.9;;;4.5;;
61627;SDS011;55193;52.102;5.242;2022-10-19T06:20:13;10.9;;;5.3;;
61627;SDS011;55193;52.102;5.242;2022-10-19T06:23:25;10.9;;;4.8;;
61627;SDS011;55193;52.102;5.242;2022-10-19T06:25:01;10.4;;;5.0;;
61627;SDS011;55193;52.102;5.242;2022-10-19T06:26:37;8.0;;;4.5;;
61627;SDS011;55193;52.102;5.242;2022-10-19T06:29:49;10.21;;;4.7;;
61627;SDS011;55193;52.102;5.242;2022-10-19T06:31:26;10.7;;;4.5;;
61627;SDS011;55193;52.102;5.242;2022-10-19T06:33:03;9.4;;;4.5;;
61627;SDS011;55193;52.102;5.242;2022-10-19T06:36:16;10.0;;;4.3;;
61627;SDS011;55193;52.102;5.242;2022-10-19T06:37:54;11.5;;;5.11;;
61627;SDS011;55193;52.102;5.242;2022-10-19T06:39:31;8.4;;;4.61;;
61627;SDS011;55193;52.102;5.242;2022-10-19T06:41:08;11.8;;;4.7;;
61627;SDS011;55193;52.102;5.242;2022-10-19T06:44:20;8.2;;;4.5;;
61627;SDS011;55193;52.102;5.242;2022-10-19T06:45:56;8.5;;;4.41;;
61627;SDS011;55193;52.102;5.242;2022-10-19T06:47:33;8.0;;;4.41;;
61627;SDS011;55193;52.102;5.242;2022-10-19T06:50:54;7.5;;;4.41;;
61627;SDS011;55193;52.102;5.242;2022-10-19T06:52:31;8.4;;;4.5;;
61627;SDS011;55193;52.102;5.242;2022-10-19T06:54:08;10.9;;;4.7;;
61627;SDS011;55193;52.102;5.242;2022-10-19T06:55:44;8.9;;;4.41;;
61627;SDS011;55193;52.102;5.242;2022-10-19T06:58:57;10.9;;;4.7;;
61627;SDS011;55193;52.102;5.242;2022-10-19T07:00:34;12.6;;;4.5;;
61627;SDS011;55193;52.102;5.242;2022-10-19T07:02:10;11.8;;;4.5;;
61627;SDS011;55193;52.102;5.242;2022-10-19T07:05:25;8.5;;;4.2;;
61627;SDS011;55193;52.102;5.242;2022-10-19T07:07:00;8.0;;;4.2;;
61627;SDS011;55193;52.102;5.242;2022-10-19T07:08:37;13.4;;;4.5;;
61627;SDS011;55193;52.102;5.242;2022-10-19T07:11:51;9.1;;;4.0;;
61627;SDS011;55193;52.102;5.242;2022-10-19T07:13:28;9.5;;;4.41;;
61627;SDS011;55193;52.102;5.242;2022-10-19T07:15:06;7.6;;;4.0;;
61627;SDS011;55193;52.102;5.242;2022-10-19T07:16:43;8.2;;;4.3;;
61627;SDS011;55193;52.102;5.242;2022-10-19T07:19:55;8.71;;;4.1;;
61627;SDS011;55193;52.102;5.242;2022-10-19T07:21:32;9.31;;;3.7;;
61627;SDS011;55193;52.102;5.242;2022-10-19T07:23:08;8.81;;;4.3;;
61627;SDS011;55193;52.102;5.242;2022-10-19T07:26:22;7.2;;;3.5;;
61627;SDS011;55193;52.102;5.242;2022-10-19T07:28:01;7.1;;;3.5;;
61627;SDS011;55193;52.102;5.242;2022-10-19T07:29:38;8.31;;;3.7;;
61627;SDS011;55193;52.102;5.242;2022-10-19T07:32:57;8.2;;;3.5;;
61627;SDS011;55193;52.102;5.242;2022-10-19T07:34:33;8.1;;;3.7;;
61627;SDS011;55193;52.102;5.242;2022-10-19T07:36:09;10.6;;;3.8;;
61627;SDS011;55193;52.102;5.242;2022-10-19T07:37:47;7.1;;;3.5;;
61627;SDS011;55193;52.102;5.242;2022-10-19T07:41:01;7.4;;;3.4;;
61627;SDS011;55193;52.102;5.242;2022-10-19T07:42:39;8.9;;;3.4;;
61627;SDS011;55193;52.102;5.242;2022-10-19T07:44:17;7.1;;;3.2;;
61627;SDS011;55193;52.102;5.242;2022-10-19T07:47:32;7.1;;;3.2;;
61627;SDS011;55193;52.102;5.242;2022-10-19T07:49:10;6.4;;;3.0;;
61627;SDS011;55193;52.102;5.242;2022-10-19T07:50:49;8.9;;;2.9;;
61627;SDS011;55193;52.102;5.242;2022-10-19T07:52:25;10.3;;;3.3;;
61627;SDS011;55193;52.102;5.242;2022-10-19T07:55:39;8.0;;;3.0;;
61627;SDS011;55193;52.102;5.242;2022-10-19T07:57:15;6.8;;;2.7;;
61627;SDS011;55193;52.102;5.242;2022-10-19T07:58:52;8.4;;;3.2;;
61627;SDS011;55193;52.102;5.242;2022-10-19T08:02:08;6.5;;;3.1;;
61627;SDS011;55193;52.102;5.242;2022-10-19T08:03:50;7.9;;;2.9;;
61627;SDS011;55193;52.102;5.242;2022-10-19T08:05:28;6.1;;;3.0;;
61627;SDS011;55193;52.102;5.242;2022-10-19T08:07:07;7.1;;;3.1;;
61627;SDS011;55193;52.102;5.242;2022-10-19T08:10:23;11.7;;;3.2;;
61627;SDS011;55193;52.102;5.242;2022-10-19T08:11:59;8.6;;;3.1;;
61627;SDS011;55193;52.102;5.242;2022-10-19T08:13:36;8.2;;;2.7;;
61627;SDS011;55193;52.102;5.242;2022-10-19T08:15:14;7.6;;;2.8;;
61627;SDS011;55193;52.102;5.242;2022-10-19T08:18:26;10.9;;;3.4;;
61627;SDS011;55193;52.102;5.242;2022-10-19T08:20:03;6.6;;;3.0;;
61627;SDS011;55193;52.102;5.242;2022-10-19T08:21:42;8.4;;;3.3;;
61627;SDS011;55193;52.102;5.242;2022-10-19T08:24:58;7.7;;;3.0;;
61627;SDS011;55193;52.102;5.242;2022-10-19T08:26:35;8.6;;;3.3;;
61627;SDS011;55193;52.102;5.242;2022-10-19T08:28:13;7.9;;;3.4;;
61627;SDS011;55193;52.102;5.242;2022-10-19T08:31:26;6.2;;;3.3;;
61627;SDS011;55193;52.102;5.242;2022-10-19T08:33:06;7.7;;;3.0;;
61627;SDS011;55193;52.102;5.242;2022-10-19T08:34:42;8.0;;;3.1;;
61627;SDS011;55193;52.102;5.242;2022-10-19T08:36:19;8.2;;;3.3;;
61627;SDS011;55193;52.102;5.242;2022-10-19T08:39:31;9.21;;;3.3;;
61627;SDS011;55193;52.102;5.242;2022-10-19T08:41:10;8.1;;;3.2;;
61627;SDS011;55193;52.102;5.242;2022-10-19T08:42:57;7.9;;;3.1;;
61627;SDS011;55193;52.102;5.242;2022-10-19T08:44:52;7.1;;;2.9;;
61627;SDS011;55193;52.102;5.242;2022-10-19T08:46:39;8.2;;;3.1;;
61627;SDS011;55193;52.102;5.242;2022-10-19T08:50:14;10.3;;;3.3;;
61627;SDS011;55193;52.102;5.242;2022-10-19T08:51:55;6.9;;;3.0;;
61627;SDS011;55193;52.102;5.242;2022-10-19T08:53:36;7.1;;;2.9;;
61627;SDS011;55193;52.102;5.242;2022-10-19T08:55:30;9.1;;;3.2;;
61627;SDS011;55193;52.102;5.242;2022-10-19T08:57:22;10.4;;;3.4;;
61627;SDS011;55193;52.102;5.242;2022-10-19T09:00:54;8.6;;;3.0;;
61627;SDS011;55193;52.102;5.242;2022-10-19T09:02:43;8.6;;;3.5;;
61627;SDS011;55193;52.102;5.242;2022-10-19T09:04:32;8.5;;;3.1;;
61627;SDS011;55193;52.102;5.242;2022-10-19T09:06:17;8.71;;;3.3;;
61627;SDS011;55193;52.102;5.242;2022-10-19T09:07:59;6.9;;;3.1;;
61627;SDS011;55193;52.102;5.242;2022-10-19T09:11:18;10.8;;;3.6;;
61627;SDS011;55193;52.102;5.242;2022-10-19T09:12:58;8.9;;;3.2;;
61627;SDS011;55193;52.102;5.242;2022-10-19T09:14:39;7.6;;;3.4;;
61627;SDS011;55193;52.102;5.242;2022-10-19T09:16:28;7.3;;;3.3;;
61627;SDS011;55193;52.102;5.242;2022-10-19T09:18:04;9.4;;;3.7;;
61627;SDS011;55193;52.102;5.242;2022-10-19T09:21:22;5.4;;;3.1;;
61627;SDS011;55193;52.102;5.242;2022-10-19T09:23:10;7.6;;;3.6;;
61627;SDS011;55193;52.102;5.242;2022-10-19T09:24:56;6.9;;;3.4;;
61627;SDS011;55193;52.102;5.242;2022-10-19T09:26:39;6.2;;;3.4;;
61627;SDS011;55193;52.102;5.242;2022-10-19T09:30:18;9.0;;;3.3;;
61627;SDS011;55193;52.102;5.242;2022-10-19T09:31:58;6.7;;;2.9;;
61627;SDS011;55193;52.102;5.242;2022-10-19T09:33:37;7.2;;;3.0;;
61627;SDS011;55193;52.102;5.242;2022-10-19T09:35:18;7.3;;;3.4;;
61627;SDS011;55193;52.102;5.242;2022-10-19T09:37:01;6.3;;;3.1;;
61627;SDS011;55193;52.102;5.242;2022-10-19T09:40:14;6.3;;;3.3;;
61627;SDS011;55193;52.102;5.242;2022-10-19T09:41:55;7.9;;;3.5;;
61627;SDS011;55193;52.102;5.242;2022-10-19T09:43:33;10.1;;;3.3;;
61627;SDS011;55193;52.102;5.242;2022-10-19T09:47:03;6.6;;;3.1;;
61627;SDS011;55193;52.102;5.242;2022-10-19T09:48:54;6.5;;;2.8;;
61627;SDS011;55193;52.102;5.242;2022-10-19T09:50:33;8.71;;;3.2;;
61627;SDS011;55193;52.102;5.242;2022-10-19T09:52:28;9.31;;;3.3;;
61627;SDS011;55193;52.102;5.242;2022-10-19T09:54:20;9.31;;;3.3;;
61627;SDS011;55193;52.102;5.242;2022-10-19T09:56:02;8.31;;;3.1;;
61627;SDS011;55193;52.102;5.242;2022-10-19T09:59:19;8.0;;;2.9;;
61627;SDS011;55193;52.102;5.242;2022-10-19T10:00:58;4.8;;;2.9;;
61627;SDS011;55193;52.102;5.242;2022-10-19T10:02:37;5.6;;;3.2;;
61627;SDS011;55193;52.102;5.242;2022-10-19T10:04:14;7.2;;;3.1;;
61627;SDS011;55193;52.102;5.242;2022-10-19T10:07:33;8.5;;;3.3;;
61627;SDS011;55193;52.102;5.242;2022-10-19T10:09:13;8.31;;;3.0;;
61627;SDS011;55193;52.102;5.242;2022-10-19T10:10:53;6.3;;;2.8;;
61627;SDS011;55193;52.102;5.242;2022-10-19T10:12:34;6.0;;;2.8;;
61627;SDS011;55193;52.102;5.242;2022-10-19T10:15:57;6.7;;;2.8;;
61627;SDS011;55193;52.102;5.242;2022-10-19T10:17:37;7.0;;;3.1;;
61627;SDS011;55193;52.102;5.242;2022-10-19T10:19:14;6.6;;;2.6;;
61627;SDS011;55193;52.102;5.242;2022-10-19T10:20:56;5.9;;;2.8;;
61627;SDS011;55193;52.102;5.242;2022-10-19T10:24:15;6.4;;;2.4;;
61627;SDS011;55193;52.102;5.242;2022-10-19T10:25:55;5.11;;;2.31;;
61627;SDS011;55193;52.102;5.242;2022-10-19T10:27:34;7.1;;;2.31;;
61627;SDS011;55193;52.102;5.242;2022-10-19T10:29:17;6.9;;;2.5;;
61627;SDS011;55193;52.102;5.242;2022-10-19T10:32:39;7.2;;;2.21;;
61627;SDS011;55193;52.102;5.242;2022-10-19T10:34:29;6.3;;;2.1;;
61627;SDS011;55193;52.102;5.242;2022-10-19T10:36:09;6.9;;;2.1;;
61627;SDS011;55193;52.102;5.242;2022-10-19T10:37:46;5.8;;;1.9;;
61627;SDS011;55193;52.102;5.242;2022-10-19T10:41:03;5.4;;;1.9;;
61627;SDS011;55193;52.102;5.242;2022-10-19T10:42:46;7.0;;;1.9;;
61627;SDS011;55193;52.102;5.242;2022-10-19T10:44:25;4.91;;;1.6;;
61627;SDS011;55193;52.102;5.242;2022-10-19T10:46:04;5.3;;;1.9;;
61627;SDS011;55193;52.102;5.242;2022-10-19T10:49:26;3.8;;;1.4;;
61627;SDS011;55193;52.102;5.242;2022-10-19T10:51:06;4.61;;;1.4;;
61627;SDS011;55193;52.102;5.242;2022-10-19T10:52:55;7.4;;;1.8;;
61627;SDS011;55193;52.102;5.242;2022-10-19T10:54:34;4.7;;;1.5;;
61627;SDS011;55193;52.102;5.242;2022-10-19T10:58:08;5.2;;;1.3;;
61627;SDS011;55193;52.102;5.242;2022-10-19T11:00:10;6.4;;;1.4;;
61627;SDS011;55193;52.102;5.242;2022-10-19T11:01:52;5.9;;;1.5;;
61627;SDS011;55193;52.102;5.242;2022-10-19T11:03:36;4.91;;;1.2;;
61627;SDS011;55193;52.102;5.242;2022-10-19T11:05:22;4.7;;;1.3;;
61627;SDS011;55193;52.102;5.242;2022-10-19T11:07:15;4.61;;;1.11;;
61627;SDS011;55193;52.102;5.242;2022-10-19T11:08:58;4.2;;;1.0;;
61627;SDS011;55193;52.102;5.242;2022-10-19T11:12:30;4.41;;;1.2;;
61627;SDS011;55193;52.102;5.242;2022-10-19T11:14:29;5.6;;;1.6;;
61627;SDS011;55193;52.102;5.242;2022-10-19T11:16:12;5.3;;;1.3;;
61627;SDS011;55193;52.102;5.242;2022-10-19T11:17:54;4.0;;;1.2;;
61627;SDS011;55193;52.102;5.242;2022-10-19T11:19:40;4.1;;;1.2;;
61627;SDS011;55193;52.102;5.242;2022-10-19T11:23:04;5.9;;;1.4;;
61627;SDS011;55193;52.102;5.242;2022-10-19T11:25:09;6.2;;;1.3;;
61627;SDS011;55193;52.102;5.242;2022-10-19T11:27:05;4.7;;;1.5;;
61627;SDS011;55193;52.102;5.242;2022-10-19T11:28:56;6.5;;;1.6;;
61627;SDS011;55193;52.102;5.242;2022-10-19T11:30:52;4.3;;;1.4;;
61627;SDS011;55193;52.102;5.242;2022-10-19T11:32:38;5.2;;;1.4;;
61627;SDS011;55193;52.102;5.242;2022-10-19T11:34:30;4.61;;;1.4;;
61627;SDS011;55193;52.102;5.242;2022-10-19T11:36:33;5.6;;;1.4;;
61627;SDS011;55193;52.102;5.242;2022-10-19T11:38:26;4.61;;;1.2;;
61627;SDS011;55193;52.102;5.242;2022-10-19T11:42:05;6.9;;;1.5;;
61627;SDS011;55193;52.102;5.242;2022-10-19T11:43:54;6.6;;;1.6;;
61627;SDS011;55193;52.102;5.242;2022-10-19T11:45:49;6.3;;;1.3;;
61627;SDS011;55193;52.102;5.242;2022-10-19T11:47:38;4.1;;;1.4;;
61627;SDS011;55193;52.102;5.242;2022-10-19T11:49:33;6.5;;;1.4;;
61627;SDS011;55193;52.102;5.242;2022-10-19T11:51:24;5.9;;;1.4;;
61627;SDS011;55193;52.102;5.242;2022-10-19T11:53:11;5.4;;;1.4;;
61627;SDS011;55193;52.102;5.242;2022-10-19T11:54:57;4.8;;;1.3;;
61627;SDS011;55193;52.102;5.242;2022-10-19T11:58:35;4.0;;;1.4;;
61627;SDS011;55193;52.102;5.242;2022-10-19T12:00:34;5.3;;;1.3;;
61627;SDS011;55193;52.102;5.242;2022-10-19T12:02:23;5.0;;;1.4;;
61627;SDS011;55193;52.102;5.242;2022-10-19T12:04:39;3.4;;;1.2;;
61627;SDS011;55193;52.102;5.242;2022-10-19T12:06:22;4.5;;;1.6;;
61627;SDS011;55193;52.102;5.242;2022-10-19T12:08:10;6.8;;;1.5;;
61627;SDS011;55193;52.102;5.242;2022-10-19T12:10:01;3.9;;;1.4;;
61627;SDS011;55193;52.102;5.242;2022-10-19T12:11:54;4.91;;;1.3;;
61627;SDS011;55193;52.102;5.242;2022-10-19T12:15:26;3.9;;;1.5;;
61627;SDS011;55193;52.102;5.242;2022-10-19T12:17:06;4.0;;;1.3;;
61627;SDS011;55193;52.102;5.242;2022-10-19T12:18:50;5.2;;;1.8;;
61627;SDS011;55193;52.102;5.242;2022-10-19T12:20:33;5.3;;;1.6;;
61627;SDS011;55193;52.102;5.242;2022-10-19T12:22:16;4.8;;;1.7;;
61627;SDS011;55193;52.102;5.242;2022-10-19T12:25:36;5.5;;;1.8;;
61627;SDS011;55193;52.102;5.242;2022-10-19T12:27:18;3.9;;;1.5;;
61627;SDS011;55193;52.102;5.242;2022-10-19T12:29:06;6.1;;;1.8;;
61627;SDS011;55193;52.102;5.242;2022-10-19T12:30:50;5.5;;;1.7;;
61627;SDS011;55193;52.102;5.242;2022-10-19T12:34:19;5.7;;;1.7;;
61627;SDS011;55193;52.102;5.242;2022-10-19T12:36:13;6.3;;;1.6;;
61627;SDS011;55193;52.102;5.242;2022-10-19T12:37:58;4.7;;;1.6;;
61627;SDS011;55193;52.102;5.242;2022-10-19T12:39:44;4.5;;;1.7;;
61627;SDS011;55193;52.102;5.242;2022-10-19T12:41:29;5.0;;;1.9;;
61627;SDS011;55193;52.102;5.242;2022-10-19T12:43:12;3.3;;;1.7;;
61627;SDS011;55193;52.102;5.242;2022-10-19T12:46:50;6.4;;;1.6;;
61627;SDS011;55193;52.102;5.242;2022-10-19T12:48:35;4.91;;;1.5;;
61627;SDS011;55193;52.102;5.242;2022-10-19T12:50:11;4.91;;;1.6;;